world map with BGA marked

BGA - Airport

This information may not be accurate or current and is not valid for navigation or flight planning. No warranty of fitness for any purpose is made or implied.

flag of Santanderflag of Colombia

Donate via PayPal

Additional information is available on the NEW Great Circle Mapper

Location
City:  Bucaramanga, Santander, Colombia
Name:Palonegro International Airport
ICAO / IATA:SKBG / BGA

Details
Type:Airport (Aerodrome, Airfield)
Latitude:7°07'37"N (7.126944)
Longitude:73°11'06"W (-73.184999)
Elevation:3902 ft (1189 m)
Runways:1
Longest:7381 × 131 ft (2250 × 40 m)

Time
Timezone:UTC+29:08 (DST+31:08)
Local Time:

Weather
METAR:SKBG  130500Z VRB02KT 9999 SCT012 21/21 A3002
TAF:SKBG  (expired)

Related Locations
Nearby:
Farthest:WICJ: 12446 mi / 20030 km
Bogor [Atang Sanjaya AB], JB, ID

Find:

   beyond  
but within

Other Information
Maps:
Sources:

  


 


Great Circle Mapper   Great Circle Mapper
Great Circle Mapper FAQ   Great Circle Mapper FAQ
  Karl's Home Page
KLSē   KLSē Home
   GC on Facebook
Airlines of the World   Airlines of the World
Donate via PayPal


Copyright © 2004-2018, Karl L. Swartz. All rights reserved.
All trademarks mentioned herein belong to their respective owners.

Please see credits for attribution and copyright information.

Karl Swartz <karl@kls2.com>
  Powered by FreeBSD
Valid HTML 4.01!
Labeled with ICRA
hCard Microformat
Geo Microformat